sensor_id;sensor_type;location;lat;lon;timestamp;P1;durP1;ratioP1;P2;durP2;ratioP2
9940;SDS011;5009;50.656;7.188;2023-02-28T05:02:52;2.77;;;2.50;;
9940;SDS011;5009;50.656;7.188;2023-02-28T05:05:17;3.93;;;2.90;;
9940;SDS011;5009;50.656;7.188;2023-02-28T05:07:43;3.07;;;2.47;;
9940;SDS011;5009;50.656;7.188;2023-02-28T05:10:10;3.47;;;3.17;;
9940;SDS011;5009;50.656;7.188;2023-02-28T05:12:35;3.03;;;2.80;;
9940;SDS011;5009;50.656;7.188;2023-02-28T05:15:01;2.90;;;2.70;;
9940;SDS011;5009;50.656;7.188;2023-02-28T05:17:28;2.40;;;2.20;;
9940;SDS011;5009;50.656;7.188;2023-02-28T05:19:53;3.37;;;2.20;;
9940;SDS011;5009;50.656;7.188;2023-02-28T05:22:19;2.67;;;2.20;;
9940;SDS011;5009;50.656;7.188;2023-02-28T05:24:44;3.63;;;2.80;;
9940;SDS011;5009;50.656;7.188;2023-02-28T05:27:10;3.37;;;2.30;;
9940;SDS011;5009;50.656;7.188;2023-02-28T05:29:36;3.07;;;2.77;;
9940;SDS011;5009;50.656;7.188;2023-02-28T05:32:07;2.40;;;2.30;;
9940;SDS011;5009;50.656;7.188;2023-02-28T05:34:33;3.03;;;2.67;;
9940;SDS011;5009;50.656;7.188;2023-02-28T05:36:59;2.57;;;2.37;;
9940;SDS011;5009;50.656;7.188;2023-02-28T05:39:24;3.60;;;2.33;;
9940;SDS011;5009;50.656;7.188;2023-02-28T05:41:50;3.33;;;2.40;;
9940;SDS011;5009;50.656;7.188;2023-02-28T05:44:15;2.73;;;2.40;;
9940;SDS011;5009;50.656;7.188;2023-02-28T05:46:41;2.73;;;2.50;;
9940;SDS011;5009;50.656;7.188;2023-02-28T05:49:07;3.50;;;2.37;;
9940;SDS011;5009;50.656;7.188;2023-02-28T05:51:32;3.83;;;3.17;;
9940;SDS011;5009;50.656;7.188;2023-02-28T05:53:59;2.57;;;2.37;;
9940;SDS011;5009;50.656;7.188;2023-02-28T05:56:26;2.60;;;2.40;;
9940;SDS011;5009;50.656;7.188;2023-02-28T05:58:51;3.00;;;2.80;;
9940;SDS011;5009;50.656;7.188;2023-02-28T06:03:51;5.10;;;3.00;;
9940;SDS011;5009;50.656;7.188;2023-02-28T06:06:17;5.53;;;2.90;;
9940;SDS011;5009;50.656;7.188;2023-02-28T06:08:42;4.80;;;3.00;;
9940;SDS011;5009;50.656;7.188;2023-02-28T06:12:40;2.47;;;2.17;;
9940;SDS011;5009;50.656;7.188;2023-02-28T06:15:07;3.07;;;2.70;;
9940;SDS011;5009;50.656;7.188;2023-02-28T06:17:42;2.63;;;2.40;;
9940;SDS011;5009;50.656;7.188;2023-02-28T06:20:09;3.93;;;2.40;;
9940;SDS011;5009;50.656;7.188;2023-02-28T06:22:37;3.27;;;2.70;;
9940;SDS011;5009;50.656;7.188;2023-02-28T06:25:03;3.40;;;3.10;;
9940;SDS011;5009;50.656;7.188;2023-02-28T06:27:30;2.77;;;2.43;;
9940;SDS011;5009;50.656;7.188;2023-02-28T06:29:56;3.10;;;2.80;;
9940;SDS011;5009;50.656;7.188;2023-02-28T06:32:22;2.60;;;2.40;;
9940;SDS011;5009;50.656;7.188;2023-02-28T06:34:47;3.20;;;2.67;;
9940;SDS011;5009;50.656;7.188;2023-02-28T06:37:13;2.93;;;2.70;;
9940;SDS011;5009;50.656;7.188;2023-02-28T06:39:39;3.00;;;2.80;;
9940;SDS011;5009;50.656;7.188;2023-02-28T06:42:05;2.87;;;2.67;;
9940;SDS011;5009;50.656;7.188;2023-02-28T06:44:30;2.77;;;2.57;;
9940;SDS011;5009;50.656;7.188;2023-02-28T06:47:00;3.60;;;3.30;;
9940;SDS011;5009;50.656;7.188;2023-02-28T06:49:27;3.00;;;2.80;;
9940;SDS011;5009;50.656;7.188;2023-02-28T06:51:53;3.00;;;2.70;;
9940;SDS011;5009;50.656;7.188;2023-02-28T06:54:19;3.33;;;2.83;;
9940;SDS011;5009;50.656;7.188;2023-02-28T06:56:45;4.17;;;3.10;;
9940;SDS011;5009;50.656;7.188;2023-02-28T06:59:11;2.70;;;2.50;;
9940;SDS011;5009;50.656;7.188;2023-02-28T07:01:38;3.23;;;2.67;;
9940;SDS011;5009;50.656;7.188;2023-02-28T07:04:04;3.50;;;3.20;;
9940;SDS011;5009;50.656;7.188;2023-02-28T07:06:30;3.60;;;3.27;;
9940;SDS011;5009;50.656;7.188;2023-02-28T07:08:57;2.70;;;2.50;;
9940;SDS011;5009;50.656;7.188;2023-02-28T07:11:24;2.73;;;2.47;;
9940;SDS011;5009;50.656;7.188;2023-02-28T07:13:51;3.27;;;2.97;;
9940;SDS011;5009;50.656;7.188;2023-02-28T07:16:18;2.43;;;2.20;;
9940;SDS011;5009;50.656;7.188;2023-02-28T07:18:43;3.00;;;2.40;;
9940;SDS011;5009;50.656;7.188;2023-02-28T07:22:43;2.83;;;2.17;;
9940;SDS011;5009;50.656;7.188;2023-02-28T07:25:09;3.13;;;2.87;;
9940;SDS011;5009;50.656;7.188;2023-02-28T07:27:35;3.67;;;2.60;;
9940;SDS011;5009;50.656;7.188;2023-02-28T07:30:00;2.77;;;2.57;;
9940;SDS011;5009;50.656;7.188;2023-02-28T07:32:28;2.67;;;2.43;;
9940;SDS011;5009;50.656;7.188;2023-02-28T07:34:54;4.60;;;2.93;;
9940;SDS011;5009;50.656;7.188;2023-02-28T07:37:20;2.43;;;2.23;;
9940;SDS011;5009;50.656;7.188;2023-02-28T07:39:47;2.87;;;2.50;;
9940;SDS011;5009;50.656;7.188;2023-02-28T07:42:12;2.40;;;2.20;;
9940;SDS011;5009;50.656;7.188;2023-02-28T07:44:38;3.00;;;2.70;;
9940;SDS011;5009;50.656;7.188;2023-02-28T07:47:06;2.60;;;2.40;;
9940;SDS011;5009;50.656;7.188;2023-02-28T07:49:38;2.50;;;2.30;;
9940;SDS011;5009;50.656;7.188;2023-02-28T07:52:05;2.50;;;2.30;;
9940;SDS011;5009;50.656;7.188;2023-02-28T07:54:31;3.20;;;2.90;;
9940;SDS011;5009;50.656;7.188;2023-02-28T07:56:58;2.67;;;2.37;;
9940;SDS011;5009;50.656;7.188;2023-02-28T07:59:23;4.50;;;2.70;;
9940;SDS011;5009;50.656;7.188;2023-02-28T08:01:49;3.00;;;2.70;;
9940;SDS011;5009;50.656;7.188;2023-02-28T08:04:18;2.85;;;2.65;;
9940;SDS011;5009;50.656;7.188;2023-02-28T08:06:44;2.70;;;2.50;;
9940;SDS011;5009;50.656;7.188;2023-02-28T08:09:10;3.83;;;3.03;;
9940;SDS011;5009;50.656;7.188;2023-02-28T08:11:36;3.87;;;2.70;;
9940;SDS011;5009;50.656;7.188;2023-02-28T08:14:02;3.70;;;2.73;;
9940;SDS011;5009;50.656;7.188;2023-02-28T08:16:27;2.95;;;2.70;;
9940;SDS011;5009;50.656;7.188;2023-02-28T08:18:53;3.10;;;2.83;;
9940;SDS011;5009;50.656;7.188;2023-02-28T08:21:19;2.95;;;2.30;;
9940;SDS011;5009;50.656;7.188;2023-02-28T08:23:46;3.72;;;2.70;;
9940;SDS011;5009;50.656;7.188;2023-02-28T08:26:13;3.23;;;2.80;;
9940;SDS011;5009;50.656;7.188;2023-02-28T08:28:39;2.80;;;2.60;;
9940;SDS011;5009;50.656;7.188;2023-02-28T08:31:09;3.03;;;2.53;;
9940;SDS011;5009;50.656;7.188;2023-02-28T08:33:36;2.70;;;2.50;;
9940;SDS011;5009;50.656;7.188;2023-02-28T08:36:02;3.77;;;2.60;;
9940;SDS011;5009;50.656;7.188;2023-02-28T08:38:28;4.27;;;2.70;;
9940;SDS011;5009;50.656;7.188;2023-02-28T08:40:57;2.50;;;2.40;;
9940;SDS011;5009;50.656;7.188;2023-02-28T08:43:24;3.63;;;2.43;;
9940;SDS011;5009;50.656;7.188;2023-02-28T08:45:53;2.50;;;2.30;;
9940;SDS011;5009;50.656;7.188;2023-02-28T08:48:25;2.47;;;2.27;;
9940;SDS011;5009;50.656;7.188;2023-02-28T08:50:58;3.23;;;2.40;;
9940;SDS011;5009;50.656;7.188;2023-02-28T08:53:29;3.47;;;2.43;;
9940;SDS011;5009;50.656;7.188;2023-02-28T08:55:56;3.60;;;2.23;;
9940;SDS011;5009;50.656;7.188;2023-02-28T08:58:23;3.13;;;2.70;;
9940;SDS011;5009;50.656;7.188;2023-02-28T09:00:50;2.30;;;2.07;;
9940;SDS011;5009;50.656;7.188;2023-02-28T09:03:15;2.43;;;2.20;;
9940;SDS011;5009;50.656;7.188;2023-02-28T09:05:42;2.60;;;2.40;;
9940;SDS011;5009;50.656;7.188;2023-02-28T09:08:20;2.47;;;2.37;;
9940;SDS011;5009;50.656;7.188;2023-02-28T09:10:46;6.07;;;2.30;;
9940;SDS011;5009;50.656;7.188;2023-02-28T09:13:12;2.47;;;2.27;;
9940;SDS011;5009;50.656;7.188;2023-02-28T09:15:38;2.80;;;2.50;;
9940;SDS011;5009;50.656;7.188;2023-02-28T09:18:04;1.90;;;1.80;;
9940;SDS011;5009;50.656;7.188;2023-02-28T09:20:29;2.10;;;2.00;;
9940;SDS011;5009;50.656;7.188;2023-02-28T09:22:55;4.00;;;2.23;;
9940;SDS011;5009;50.656;7.188;2023-02-28T09:25:21;2.43;;;2.23;;
9940;SDS011;5009;50.656;7.188;2023-02-28T09:27:46;4.33;;;2.17;;
9940;SDS011;5009;50.656;7.188;2023-02-28T09:30:12;2.63;;;2.43;;
9940;SDS011;5009;50.656;7.188;2023-02-28T09:32:38;2.53;;;2.23;;
9940;SDS011;5009;50.656;7.188;2023-02-28T09:35:04;2.43;;;2.20;;
9940;SDS011;5009;50.656;7.188;2023-02-28T09:37:30;3.03;;;2.40;;
9940;SDS011;5009;50.656;7.188;2023-02-28T09:39:56;3.60;;;2.40;;
9940;SDS011;5009;50.656;7.188;2023-02-28T09:42:24;2.67;;;2.47;;
9940;SDS011;5009;50.656;7.188;2023-02-28T09:44:54;4.40;;;2.80;;
9940;SDS011;5009;50.656;7.188;2023-02-28T09:47:31;2.23;;;1.93;;
9940;SDS011;5009;50.656;7.188;2023-02-28T09:50:06;3.10;;;2.40;;
9940;SDS011;5009;50.656;7.188;2023-02-28T09:53:01;3.03;;;2.53;;
9940;SDS011;5009;50.656;7.188;2023-02-28T09:55:33;2.27;;;2.10;;
9940;SDS011;5009;50.656;7.188;2023-02-28T09:58:04;4.33;;;2.30;;
9940;SDS011;5009;50.656;7.188;2023-02-28T10:00:33;3.03;;;2.63;;
9940;SDS011;5009;50.656;7.188;2023-02-28T10:05:38;2.27;;;2.17;;
9940;SDS011;5009;50.656;7.188;2023-02-28T10:10:43;3.00;;;2.63;;
9940;SDS011;5009;50.656;7.188;2023-02-28T10:15:52;4.10;;;2.60;;
9940;SDS011;5009;50.656;7.188;2023-02-28T10:18:27;2.87;;;2.63;;
9940;SDS011;5009;50.656;7.188;2023-02-28T10:21:02;3.77;;;2.57;;
9940;SDS011;5009;50.656;7.188;2023-02-28T10:23:30;5.77;;;2.50;;
9940;SDS011;5009;50.656;7.188;2023-02-28T10:26:01;2.87;;;2.50;;
9940;SDS011;5009;50.656;7.188;2023-02-28T10:28:40;5.27;;;2.90;;
9940;SDS011;5009;50.656;7.188;2023-02-28T10:31:08;3.17;;;2.73;;
9940;SDS011;5009;50.656;7.188;2023-02-28T10:33:41;2.80;;;2.60;;
9940;SDS011;5009;50.656;7.188;2023-02-28T10:36:08;2.80;;;2.60;;
9940;SDS011;5009;50.656;7.188;2023-02-28T10:38:39;5.50;;;2.80;;
9940;SDS011;5009;50.656;7.188;2023-02-28T10:41:06;3.30;;;2.57;;
9940;SDS011;5009;50.656;7.188;2023-02-28T10:43:35;2.83;;;2.47;;
9940;SDS011;5009;50.656;7.188;2023-02-28T10:48:38;5.90;;;2.60;;
9940;SDS011;5009;50.656;7.188;2023-02-28T10:51:04;2.43;;;2.23;;
9940;SDS011;5009;50.656;7.188;2023-02-28T10:53:37;3.50;;;2.33;;
9940;SDS011;5009;50.656;7.188;2023-02-28T10:56:19;2.50;;;2.37;;
9940;SDS011;5009;50.656;7.188;2023-02-28T10:58:57;3.97;;;2.50;;
9940;SDS011;5009;50.656;7.188;2023-02-28T11:04:02;3.57;;;2.43;;
9940;SDS011;5009;50.656;7.188;2023-02-28T11:06:31;3.43;;;2.70;;
9940;SDS011;5009;50.656;7.188;2023-02-28T11:08:59;2.70;;;2.43;;
9940;SDS011;5009;50.656;7.188;2023-02-28T11:11:29;3.00;;;2.70;;
9940;SDS011;5009;50.656;7.188;2023-02-28T11:14:05;3.10;;;2.80;;
9940;SDS011;5009;50.656;7.188;2023-02-28T11:16:41;2.60;;;2.40;;
9940;SDS011;5009;50.656;7.188;2023-02-28T11:19:06;2.50;;;2.30;;
9940;SDS011;5009;50.656;7.188;2023-02-28T11:21:49;2.60;;;2.47;;
9940;SDS011;5009;50.656;7.188;2023-02-28T11:24:24;2.30;;;2.10;;
9940;SDS011;5009;50.656;7.188;2023-02-28T11:26:57;2.60;;;2.40;;
9940;SDS011;5009;50.656;7.188;2023-02-28T11:29:23;3.50;;;2.47;;
9940;SDS011;5009;50.656;7.188;2023-02-28T11:32:25;2.30;;;2.20;;
9940;SDS011;5009;50.656;7.188;2023-02-28T11:34:45;2.83;;;2.40;;
9940;SDS011;5009;50.656;7.188;2023-02-28T11:37:13;2.60;;;2.40;;
9940;SDS011;5009;50.656;7.188;2023-02-28T11:39:41;2.50;;;2.30;;
9940;SDS011;5009;50.656;7.188;2023-02-28T11:48:17;3.00;;;2.80;;
9940;SDS011;5009;50.656;7.188;2023-02-28T12:04:07;2.30;;;2.20;;
9940;SDS011;5009;50.656;7.188;2023-02-28T12:06:43;2.83;;;2.63;;
9940;SDS011;5009;50.656;7.188;2023-02-28T12:09:20;3.10;;;2.57;;
9940;SDS011;5009;50.656;7.188;2023-02-28T12:20:49;2.63;;;2.43;;
9940;SDS011;5009;50.656;7.188;2023-02-28T12:23:41;2.87;;;2.60;;
9940;SDS011;5009;50.656;7.188;2023-02-28T12:26:36;2.70;;;2.37;;
9940;SDS011;5009;50.656;7.188;2023-02-28T12:29:21;3.20;;;2.87;;
9940;SDS011;5009;50.656;7.188;2023-02-28T12:34:44;3.63;;;3.03;;
9940;SDS011;5009;50.656;7.188;2023-02-28T12:37:17;2.97;;;2.77;;
9940;SDS011;5009;50.656;7.188;2023-02-28T12:40:19;3.47;;;3.17;;
9940;SDS011;5009;50.656;7.188;2023-02-28T12:42:48;2.70;;;2.50;;
9940;SDS011;5009;50.656;7.188;2023-02-28T12:45:30;3.63;;;2.93;;
9940;SDS011;5009;50.656;7.188;2023-02-28T12:48:16;3.33;;;3.00;;
9940;SDS011;5009;50.656;7.188;2023-02-28T12:50:50;3.50;;;2.80;;
9940;SDS011;5009;50.656;7.188;2023-02-28T12:58:47;3.20;;;2.90;;
9940;SDS011;5009;50.656;7.188;2023-02-28T13:07:16;3.77;;;2.83;;
9940;SDS011;5009;50.656;7.188;2023-02-28T13:09:52;3.10;;;2.90;;
9940;SDS011;5009;50.656;7.188;2023-02-28T13:12:19;3.40;;;3.10;;
9940;SDS011;5009;50.656;7.188;2023-02-28T13:14:45;3.20;;;2.90;;
9940;SDS011;5009;50.656;7.188;2023-02-28T13:17:11;3.73;;;2.60;;
9940;SDS011;5009;50.656;7.188;2023-02-28T13:19:45;3.33;;;3.03;;
9940;SDS011;5009;50.656;7.188;2023-02-28T13:24:59;3.13;;;2.83;;
9940;SDS011;5009;50.656;7.188;2023-02-28T13:27:38;3.07;;;2.80;;
9940;SDS011;5009;50.656;7.188;2023-02-28T13:34:04;3.30;;;3.00;;
9940;SDS011;5009;50.656;7.188;2023-02-28T13:38:39;2.57;;;2.40;;
9940;SDS011;5009;50.656;7.188;2023-02-28T13:45:22;3.57;;;3.27;;
9940;SDS011;5009;50.656;7.188;2023-02-28T13:47:57;3.57;;;2.97;;
9940;SDS011;5009;50.656;7.188;2023-02-28T13:55:45;3.60;;;3.30;;
9940;SDS011;5009;50.656;7.188;2023-02-28T14:01:04;4.27;;;3.10;;
9940;SDS011;5009;50.656;7.188;2023-02-28T14:06:13;3.37;;;3.07;;
9940;SDS011;5009;50.656;7.188;2023-02-28T14:11:37;3.33;;;3.07;;
9940;SDS011;5009;50.656;7.188;2023-02-28T14:14:05;3.97;;;3.00;;
9940;SDS011;5009;50.656;7.188;2023-02-28T14:19:12;4.97;;;3.20;;
9940;SDS011;5009;50.656;7.188;2023-02-28T14:21:59;4.53;;;3.50;;
9940;SDS011;5009;50.656;7.188;2023-02-28T14:35:47;4.00;;;3.70;;
9940;SDS011;5009;50.656;7.188;2023-02-28T14:38:27;4.03;;;3.63;;
9940;SDS011;5009;50.656;7.188;2023-02-28T14:40:58;4.80;;;3.57;;
9940;SDS011;5009;50.656;7.188;2023-02-28T14:43:28;3.90;;;3.60;;
9940;SDS011;5009;50.656;7.188;2023-02-28T14:45:55;4.07;;;3.77;;
9940;SDS011;5009;50.656;7.188;2023-02-28T14:48:26;3.70;;;3.40;;
9940;SDS011;5009;50.656;7.188;2023-02-28T14:50:57;4.20;;;3.90;;
9940;SDS011;5009;50.656;7.188;2023-02-28T14:53:28;4.50;;;3.50;;
9940;SDS011;5009;50.656;7.188;2023-02-28T14:56:00;5.73;;;4.00;;
9940;SDS011;5009;50.656;7.188;2023-02-28T14:58:30;4.57;;;4.07;;
9940;SDS011;5009;50.656;7.188;2023-02-28T15:00:58;5.87;;;3.60;;
9940;SDS011;5009;50.656;7.188;2023-02-28T15:05:55;6.17;;;4.43;;
9940;SDS011;5009;50.656;7.188;2023-02-28T15:08:23;6.33;;;4.00;;
9940;SDS011;5009;50.656;7.188;2023-02-28T15:10:53;4.53;;;4.13;;
9940;SDS011;5009;50.656;7.188;2023-02-28T15:13:19;4.53;;;4.13;;
9940;SDS011;5009;50.656;7.188;2023-02-28T15:15:56;4.67;;;4.00;;
9940;SDS011;5009;50.656;7.188;2023-02-28T15:21:12;4.13;;;3.73;;
9940;SDS011;5009;50.656;7.188;2023-02-28T15:23:51;4.57;;;3.80;;
9940;SDS011;5009;50.656;7.188;2023-02-28T15:26:39;3.90;;;3.60;;
9940;SDS011;5009;50.656;7.188;2023-02-28T15:29:08;4.20;;;3.80;;
9940;SDS011;5009;50.656;7.188;2023-02-28T15:31:46;6.00;;;4.10;;
9940;SDS011;5009;50.656;7.188;2023-02-28T15:34:34;4.43;;;3.60;;
9940;SDS011;5009;50.656;7.188;2023-02-28T15:37:46;5.13;;;4.17;;
9940;SDS011;5009;50.656;7.188;2023-02-28T15:39:55;5.07;;;3.97;;
9940;SDS011;5009;50.656;7.188;2023-02-28T15:42:23;4.80;;;4.20;;
9940;SDS011;5009;50.656;7.188;2023-02-28T15:44:53;4.37;;;3.93;;
9940;SDS011;5009;50.656;7.188;2023-02-28T15:47:23;4.20;;;3.83;;
9940;SDS011;5009;50.656;7.188;2023-02-28T15:49:54;4.50;;;4.10;;
9940;SDS011;5009;50.656;7.188;2023-02-28T15:52:28;4.43;;;4.03;;
9940;SDS011;5009;50.656;7.188;2023-02-28T15:54:56;4.20;;;3.80;;
9940;SDS011;5009;50.656;7.188;2023-02-28T15:57:27;4.47;;;4.07;;
9940;SDS011;5009;50.656;7.188;2023-02-28T15:59:54;4.73;;;4.23;;
9940;SDS011;5009;50.656;7.188;2023-02-28T16:02:29;4.57;;;4.17;;
9940;SDS011;5009;50.656;7.188;2023-02-28T16:07:31;6.70;;;4.23;;
9940;SDS011;5009;50.656;7.188;2023-02-28T16:09:58;6.23;;;4.23;;
9940;SDS011;5009;50.656;7.188;2023-02-28T16:12:28;4.13;;;3.83;;
9940;SDS011;5009;50.656;7.188;2023-02-28T16:14:55;5.40;;;4.63;;
9940;SDS011;5009;50.656;7.188;2023-02-28T16:17:27;5.23;;;4.60;;
9940;SDS011;5009;50.656;7.188;2023-02-28T16:19:58;4.50;;;3.90;;
9940;SDS011;5009;50.656;7.188;2023-02-28T16:22:24;4.60;;;4.20;;
9940;SDS011;5009;50.656;7.188;2023-02-28T16:24:50;3.93;;;3.63;;
9940;SDS011;5009;50.656;7.188;2023-02-28T16:27:18;5.60;;;4.23;;
9940;SDS011;5009;50.656;7.188;2023-02-28T16:29:46;4.50;;;4.10;;
9940;SDS011;5009;50.656;7.188;2023-02-28T16:32:14;3.80;;;3.50;;
9940;SDS011;5009;50.656;7.188;2023-02-28T16:34:40;4.00;;;3.60;;
9940;SDS011;5009;50.656;7.188;2023-02-28T16:37:13;4.10;;;3.70;;
9940;SDS011;5009;50.656;7.188;2023-02-28T16:39:41;4.20;;;3.80;;
9940;SDS011;5009;50.656;7.188;2023-02-28T16:42:14;4.43;;;4.03;;
9940;SDS011;5009;50.656;7.188;2023-02-28T16:44:46;4.67;;;3.90;;
9940;SDS011;5009;50.656;7.188;2023-02-28T16:47:12;4.43;;;4.03;;
9940;SDS011;5009;50.656;7.188;2023-02-28T16:49:38;4.43;;;3.97;;
9940;SDS011;5009;50.656;7.188;2023-02-28T16:52:06;5.03;;;4.20;;
9940;SDS011;5009;50.656;7.188;2023-02-28T16:54:32;4.20;;;3.63;;
9940;SDS011;5009;50.656;7.188;2023-02-28T16:56:58;4.33;;;3.93;;
9940;SDS011;5009;50.656;7.188;2023-02-28T16:59:24;5.50;;;4.93;;
9940;SDS011;5009;50.656;7.188;2023-02-28T17:01:52;4.53;;;3.90;;
9940;SDS011;5009;50.656;7.188;2023-02-28T17:04:18;4.60;;;4.20;;
9940;SDS011;5009;50.656;7.188;2023-02-28T17:06:44;5.10;;;4.23;;
9940;SDS011;5009;50.656;7.188;2023-02-28T17:09:14;4.50;;;4.03;;
9940;SDS011;5009;50.656;7.188;2023-02-28T17:11:47;4.27;;;3.60;;
9940;SDS011;5009;50.656;7.188;2023-02-28T17:14:14;4.77;;;4.20;;
9940;SDS011;5009;50.656;7.188;2023-02-28T17:16:40;7.87;;;4.30;;
9940;SDS011;5009;50.656;7.188;2023-02-28T17:19:09;4.37;;;3.93;;
9940;SDS011;5009;50.656;7.188;2023-02-28T17:21:37;6.30;;;5.07;;
9940;SDS011;5009;50.656;7.188;2023-02-28T17:24:03;5.23;;;4.73;;
9940;SDS011;5009;50.656;7.188;2023-02-28T17:26:29;5.30;;;4.80;;
9940;SDS011;5009;50.656;7.188;2023-02-28T17:28:56;6.47;;;5.37;;
9940;SDS011;5009;50.656;7.188;2023-02-28T17:31:26;6.50;;;5.20;;
9940;SDS011;5009;50.656;7.188;2023-02-28T17:33:52;5.23;;;4.73;;
9940;SDS011;5009;50.656;7.188;2023-02-28T17:36:21;6.27;;;4.87;;
9940;SDS011;5009;50.656;7.188;2023-02-28T17:38:49;8.10;;;7.43;;
9940;SDS011;5009;50.656;7.188;2023-02-28T17:41:16;8.30;;;7.20;;
9940;SDS011;5009;50.656;7.188;2023-02-28T17:43:45;7.10;;;6.33;;
9940;SDS011;5009;50.656;7.188;2023-02-28T17:46:19;31.23;;;24.67;;
9940;SDS011;5009;50.656;7.188;2023-02-28T17:48:50;16.30;;;13.63;;
9940;SDS011;5009;50.656;7.188;2023-02-28T17:51:17;59.60;;;46.33;;
9940;SDS011;5009;50.656;7.188;2023-02-28T17:53:48;29.27;;;24.93;;
9940;SDS011;5009;50.656;7.188;2023-02-28T17:56:15;21.97;;;17.50;;
9940;SDS011;5009;50.656;7.188;2023-02-28T17:58:46;12.53;;;10.27;;
9940;SDS011;5009;50.656;7.188;2023-02-28T18:01:12;11.20;;;9.60;;
9940;SDS011;5009;50.656;7.188;2023-02-28T18:03:38;15.27;;;13.33;;
9940;SDS011;5009;50.656;7.188;2023-02-28T18:06:04;15.23;;;12.83;;
9940;SDS011;5009;50.656;7.188;2023-02-28T18:08:30;10.80;;;9.30;;
9940;SDS011;5009;50.656;7.188;2023-02-28T18:10:59;12.50;;;7.80;;
9940;SDS011;5009;50.656;7.188;2023-02-28T18:13:25;9.33;;;7.03;;
9940;SDS011;5009;50.656;7.188;2023-02-28T18:15:52;11.30;;;8.30;;
9940;SDS011;5009;50.656;7.188;2023-02-28T18:18:18;10.90;;;8.30;;
9940;SDS011;5009;50.656;7.188;2023-02-28T18:20:44;12.50;;;9.30;;
9940;SDS011;5009;50.656;7.188;2023-02-28T18:23:09;12.87;;;8.53;;
9940;SDS011;5009;50.656;7.188;2023-02-28T18:25:35;9.73;;;8.70;;
9940;SDS011;5009;50.656;7.188;2023-02-28T18:28:02;11.53;;;8.33;;
9940;SDS011;5009;50.656;7.188;2023-02-28T18:30:31;11.40;;;8.27;;
9940;SDS011;5009;50.656;7.188;2023-02-28T18:33:01;11.50;;;8.70;;
9940;SDS011;5009;50.656;7.188;2023-02-28T18:35:28;13.77;;;10.13;;
9940;SDS011;5009;50.656;7.188;2023-02-28T18:38:05;14.50;;;9.77;;
9940;SDS011;5009;50.656;7.188;2023-02-28T18:40:31;11.90;;;9.83;;
9940;SDS011;5009;50.656;7.188;2023-02-28T18:42:57;12.63;;;9.17;;
9940;SDS011;5009;50.656;7.188;2023-02-28T18:45:23;10.43;;;8.37;;
9940;SDS011;5009;50.656;7.188;2023-02-28T18:47:48;11.60;;;8.97;;
9940;SDS011;5009;50.656;7.188;2023-02-28T18:50:14;10.90;;;8.37;;
9940;SDS011;5009;50.656;7.188;2023-02-28T18:52:40;10.10;;;8.63;;
9940;SDS011;5009;50.656;7.188;2023-02-28T18:55:05;8.50;;;7.47;;
9940;SDS011;5009;50.656;7.188;2023-02-28T18:57:33;13.03;;;8.70;;
9940;SDS011;5009;50.656;7.188;2023-02-28T18:59:58;9.63;;;8.00;;
9940;SDS011;5009;50.656;7.188;2023-02-28T19:02:24;12.03;;;8.63;;
9940;SDS011;5009;50.656;7.188;2023-02-28T19:04:49;9.37;;;7.93;;
9940;SDS011;5009;50.656;7.188;2023-02-28T19:07:15;9.93;;;8.50;;
9940;SDS011;5009;50.656;7.188;2023-02-28T19:09:41;12.97;;;8.70;;
9940;SDS011;5009;50.656;7.188;2023-02-28T19:12:07;9.60;;;8.23;;
9940;SDS011;5009;50.656;7.188;2023-02-28T19:14:33;12.43;;;8.80;;
9940;SDS011;5009;50.656;7.188;2023-02-28T19:16:59;11.07;;;9.63;;
9940;SDS011;5009;50.656;7.188;2023-02-28T19:19:24;10.77;;;8.83;;
9940;SDS011;5009;50.656;7.188;2023-02-28T19:21:50;9.20;;;7.80;;
9940;SDS011;5009;50.656;7.188;2023-02-28T19:24:15;9.33;;;8.40;;
9940;SDS011;5009;50.656;7.188;2023-02-28T19:26:41;12.17;;;9.20;;
9940;SDS011;5009;50.656;7.188;2023-02-28T19:29:06;10.87;;;9.67;;
9940;SDS011;5009;50.656;7.188;2023-02-28T19:31:32;11.07;;;9.50;;
9940;SDS011;5009;50.656;7.188;2023-02-28T19:33:57;11.70;;;9.50;;
9940;SDS011;5009;50.656;7.188;2023-02-28T19:36:24;12.70;;;9.73;;
9940;SDS011;5009;50.656;7.188;2023-02-28T19:38:50;17.37;;;12.43;;
9940;SDS011;5009;50.656;7.188;2023-02-28T19:41:16;22.40;;;14.90;;
9940;SDS011;5009;50.656;7.188;2023-02-28T19:43:42;23.17;;;15.00;;
9940;SDS011;5009;50.656;7.188;2023-02-28T19:46:08;20.80;;;14.47;;
9940;SDS011;5009;50.656;7.188;2023-02-28T19:48:35;17.73;;;12.93;;
9940;SDS011;5009;50.656;7.188;2023-02-28T19:51:02;15.43;;;12.40;;
9940;SDS011;5009;50.656;7.188;2023-02-28T19:53:30;15.47;;;11.07;;
9940;SDS011;5009;50.656;7.188;2023-02-28T19:55:57;14.20;;;11.13;;
9940;SDS011;5009;50.656;7.188;2023-02-28T19:58:24;15.43;;;11.23;;
9940;SDS011;5009;50.656;7.188;2023-02-28T20:00:50;12.67;;;10.03;;
9940;SDS011;5009;50.656;7.188;2023-02-28T20:03:15;15.60;;;10.90;;
9940;SDS011;5009;50.656;7.188;2023-02-28T20:05:42;12.20;;;10.03;;
9940;SDS011;5009;50.656;7.188;2023-02-28T20:08:08;14.00;;;9.80;;
9940;SDS011;5009;50.656;7.188;2023-02-28T20:10:34;13.50;;;10.83;;
9940;SDS011;5009;50.656;7.188;2023-02-28T20:13:14;14.93;;;10.13;;
9940;SDS011;5009;50.656;7.188;2023-02-28T20:15:40;12.23;;;10.27;;
9940;SDS011;5009;50.656;7.188;2023-02-28T20:18:05;12.13;;;9.87;;
9940;SDS011;5009;50.656;7.188;2023-02-28T20:20:31;10.63;;;9.37;;
9940;SDS011;5009;50.656;7.188;2023-02-28T20:23:00;13.57;;;10.47;;
9940;SDS011;5009;50.656;7.188;2023-02-28T20:25:26;15.53;;;11.83;;
9940;SDS011;5009;50.656;7.188;2023-02-28T20:27:51;23.37;;;12.70;;
9940;SDS011;5009;50.656;7.188;2023-02-28T20:30:17;15.93;;;12.17;;
9940;SDS011;5009;50.656;7.188;2023-02-28T20:32:47;16.40;;;12.10;;
9940;SDS011;5009;50.656;7.188;2023-02-28T20:35:12;20.03;;;13.40;;
9940;SDS011;5009;50.656;7.188;2023-02-28T20:37:38;19.30;;;13.17;;
9940;SDS011;5009;50.656;7.188;2023-02-28T20:40:04;18.43;;;12.53;;
9940;SDS011;5009;50.656;7.188;2023-02-28T20:42:30;14.43;;;11.67;;
9940;SDS011;5009;50.656;7.188;2023-02-28T20:44:56;13.27;;;11.17;;
9940;SDS011;5009;50.656;7.188;2023-02-28T20:47:21;14.33;;;11.13;;
9940;SDS011;5009;50.656;7.188;2023-02-28T20:49:47;12.17;;;9.93;;
9940;SDS011;5009;50.656;7.188;2023-02-28T20:52:12;12.80;;;9.83;;
9940;SDS011;5009;50.656;7.188;2023-02-28T20:54:38;12.63;;;9.80;;
9940;SDS011;5009;50.656;7.188;2023-02-28T20:57:03;13.17;;;10.20;;
9940;SDS011;5009;50.656;7.188;2023-02-28T20:59:29;11.37;;;9.30;;
9940;SDS011;5009;50.656;7.188;2023-02-28T21:01:55;11.87;;;10.13;;
9940;SDS011;5009;50.656;7.188;2023-02-28T21:04:20;11.93;;;9.77;;
9940;SDS011;5009;50.656;7.188;2023-02-28T21:06:46;11.83;;;9.40;;
9940;SDS011;5009;50.656;7.188;2023-02-28T21:09:12;12.67;;;10.07;;
9940;SDS011;5009;50.656;7.188;2023-02-28T21:11:39;12.17;;;10.87;;
9940;SDS011;5009;50.656;7.188;2023-02-28T21:14:06;14.47;;;11.50;;
9940;SDS011;5009;50.656;7.188;2023-02-28T21:16:36;15.50;;;12.30;;
9940;SDS011;5009;50.656;7.188;2023-02-28T21:19:02;15.50;;;12.40;;
9940;SDS011;5009;50.656;7.188;2023-02-28T21:21:28;15.63;;;12.77;;
9940;SDS011;5009;50.656;7.188;2023-02-28T21:25:40;20.50;;;13.20;;
9940;SDS011;5009;50.656;7.188;2023-02-28T21:28:06;15.57;;;11.73;;
9940;SDS011;5009;50.656;7.188;2023-02-28T21:30:32;18.00;;;12.80;;
9940;SDS011;5009;50.656;7.188;2023-02-28T21:33:42;18.67;;;13.20;;
9940;SDS011;5009;50.656;7.188;2023-02-28T21:36:10;17.30;;;12.63;;
9940;SDS011;5009;50.656;7.188;2023-02-28T21:38:41;15.50;;;12.57;;
9940;SDS011;5009;50.656;7.188;2023-02-28T21:41:12;15.43;;;11.90;;
9940;SDS011;5009;50.656;7.188;2023-02-28T21:43:40;15.63;;;11.53;;
9940;SDS011;5009;50.656;7.188;2023-02-28T21:46:06;17.77;;;11.87;;
9940;SDS011;5009;50.656;7.188;2023-02-28T21:48:37;15.73;;;12.07;;
9940;SDS011;5009;50.656;7.188;2023-02-28T21:53:02;16.87;;;12.10;;
9940;SDS011;5009;50.656;7.188;2023-02-28T21:55:28;13.53;;;10.97;;
9940;SDS011;5009;50.656;7.188;2023-02-28T21:57:53;15.20;;;10.73;;
